Goshen, New York
Current Conditions -  °F | °C
As of 1:54 AM on Wednesday 26 Nov 2014 (Local Time) from KMGJ Reporting Station
Clear Clear  
Wind Chill:   Ceiling: Unl
Heat Index:   Visibility: 10mi
Dew Point: -1°   Wind: 0mph
Humidity: 79%   Direction: NA
Pressure: 30.16"   Gusts: NA
Location:  41.41°N, 74.32°W
Report Text: KMGJ 260654Z AUTO 00000KT 10SM CLR 02/M01 A3016 RMK AO2 SLP213 T00221011 TSNO
Loading
Personal Weather Stations






























Interactive Weather Map New forecast layout! Learn more

10-Day Weather Forecast

Advertisements
Track Severe Weather on mobile